Roxbury, Connecticut
Current Conditions -  °F | °C
As of 3:36 PM on Wednesday 26 Nov 2014 (Local Time) from KOXC Reporting Station
Light Snow Light Snow  
Wind Chill: 24°   Ceiling: 500
Heat Index: 34°   Visibility: 3mi
Dew Point: 27°   Wind: 14mph
Humidity: 75%   Direction: 50°NE
Pressure: 29.84"   Gusts: 23mph
Location:  41.56°N, 73.31°W
Report Text: KOXC 262036Z 05012G20KT 3SM -RA -SG BR BKN005 OVC013 01/M03 A2984 RMK PRESFR
Loading
Personal Weather Stations






























Interactive Weather Map New forecast layout! Learn more

10-Day Weather Forecast

Advertisements
Track Severe Weather on mobile